Terminal Aerodrome Forecast
Issued by NWS

Home | Current Version | Previous Version | Text Only | Print | Product List | Glossary On
Versions: 1 2 3 4 5 6 7 8 9 10 11 12 13 14 15
000
FTAK31 PAJN 290500
TAFAGY
TAF
PAGY 290524Z 2906/3006 VRB05KT P6SM -RA SCT025 OVC050
     FM291600 22004KT P6SM -SHRA SCT030 BKN070
     FM292200 21009KT P6SM SCT030 BKN080
     FM300300 21003KT P6SM SCT030 OVC080
      AMD LTD TO CLD VIS AND WIND=

USA.gov is the U.S. government's official web portal to all federal, state and local government web resources and services.